Time;durP1;ratioP1;P1;durP2;ratioP2;P2;SDS_P1;SDS_P2;PMS_P1;PMS_P2;Temp;Humidity;BMP_temperature;BMP_pressure;BME280_temperature;BME280_humidity;BME280_pressure;Samples;Min_cycle;Max_cycle;Signal;HPM_P1;HPM_P2
2022/07/20 00:03:21;;;;;;;8.10;4.97;;;;;;;19.46;62.85;101052.06;10572636;28;20059;-76
2022/07/20 00:13:41;;;;;;;7.60;4.90;;;;;;;19.34;62.33;101038.59;10505281;28;20463;-75
2022/07/20 00:18:41;;;;;;;6.30;4.43;;;;;;;19.31;62.46;101036.78;10552427;28;20126;-76
2022/07/20 00:23:42;;;;;;;11.38;5.45;;;;;;;19.23;63.46;101035.78;10553233;28;20429;-76
2022/07/20 00:28:42;;;;;;;7.07;4.50;;;;;;;19.24;61.92;101029.59;10540988;28;20040;-76
2022/07/20 00:33:46;;;;;;;6.30;4.15;;;;;;;19.07;62.80;101027.59;10510746;28;20032;-75
2022/07/20 00:38:46;;;;;;;6.45;3.83;;;;;;;18.87;63.81;101021.97;10512870;28;20043;-75
2022/07/20 00:43:58;;;;;;;11.15;4.95;;;;;;;18.66;65.51;101025.16;10511407;28;20887;-75
2022/07/20 00:48:58;;;;;;;10.63;5.05;;;;;;;18.61;66.60;101029.47;10549769;28;20046;-76
2022/07/20 00:53:59;;;;;;;16.38;5.68;;;;;;;18.61;66.50;101029.47;10540173;28;20039;-75
2022/07/20 00:59:06;;;;;;;7.10;5.60;;;;;;;18.59;65.39;101029.47;10521801;28;20512;-75
2022/07/20 01:04:06;;;;;;;8.63;5.07;;;;;;;18.46;66.84;101025.69;10553149;28;21017;-75
2022/07/20 01:09:07;;;;;;;10.30;5.63;;;;;;;18.28;68.09;101028.91;10522128;28;20036;-76
2022/07/20 01:14:07;;;;;;;6.25;5.18;;;;;;;18.12;68.54;101024.19;10538630;28;20085;-75
2022/07/20 01:19:08;;;;;;;9.50;5.88;;;;;;;18.03;69.82;101019.59;10523471;28;20051;-76
2022/07/20 01:24:12;;;;;;;16.05;6.13;;;;;;;17.98;69.88;101023.88;10509093;28;20051;-76
2022/07/20 01:29:13;;;;;;;8.15;6.55;;;;;;;17.91;69.66;101013.16;10539464;28;20110;-75
2022/07/20 01:34:14;;;;;;;8.10;5.45;;;;;;;17.78;70.62;101024.38;10495281;28;20138;-75
2022/07/20 01:39:15;;;;;;;10.40;5.77;;;;;;;17.66;69.99;101056.78;10525838;28;20472;-75
2022/07/20 01:44:15;;;;;;;6.00;4.78;;;;;;;17.66;69.51;101070.03;10533143;28;20111;-75
2022/07/20 01:49:16;;;;;;;8.13;5.10;;;;;;;17.69;68.68;101071.81;10507234;28;20498;-76
2022/07/20 01:54:17;;;;;;;12.63;5.55;;;;;;;17.69;68.27;101095.63;10496067;28;20379;-75
2022/07/20 01:59:17;;;;;;;6.35;4.97;;;;;;;17.97;68.22;101090.94;10526856;28;20114;-76
2022/07/20 02:04:18;;;;;;;11.13;4.68;;;;;;;18.30;63.35;101095.16;10486206;28;20061;-75
2022/07/20 02:09:18;;;;;;;6.15;4.85;;;;;;;18.31;63.70;101105.81;10519439;28;20032;-75
2022/07/20 02:14:20;;;;;;;6.97;4.72;;;;;;;18.46;60.47;101096.38;10516155;28;20040;-76
2022/07/20 02:19:21;;;;;;;6.28;4.35;;;;;;;18.55;63.39;101087.69;10546431;28;20483;-76
2022/07/20 02:24:21;;;;;;;6.70;5.38;;;;;;;18.39;65.19;101073.25;10520940;28;20268;-75
2022/07/20 02:29:22;;;;;;;8.82;5.00;;;;;;;18.18;65.60;101078.16;10540231;28;20081;-75
2022/07/20 02:34:22;;;;;;;6.45;4.97;;;;;;;17.90;66.41;101087.28;10510534;28;20051;-75
2022/07/20 02:39:23;;;;;;;10.52;4.90;;;;;;;17.75;66.68;101095.78;10504764;28;20436;-75
2022/07/20 02:44:23;;;;;;;6.95;5.90;;;;;;;17.65;67.71;101089.41;10547879;28;20032;-75
2022/07/20 02:49:24;;;;;;;9.40;4.70;;;;;;;17.67;67.04;101094.72;10532692;28;20510;-76
2022/07/20 02:54:25;;;;;;;6.07;4.90;;;;;;;17.71;66.62;101097.47;10505944;28;20170;-75
2022/07/20 02:59:25;;;;;;;7.78;5.05;;;;;;;17.73;64.73;101095.75;10521425;28;20039;-75
2022/07/20 03:04:26;;;;;;;9.00;5.25;;;;;;;17.69;66.49;101098.28;10500003;28;20060;-74
2022/07/20 03:09:26;;;;;;;7.78;5.55;;;;;;;17.68;68.21;101102.72;10528864;28;20486;-75
2022/07/20 03:14:27;;;;;;;10.43;5.00;;;;;;;17.66;66.89;101116.75;10489961;28;20040;-75
2022/07/20 03:19:27;;;;;;;13.95;6.72;;;;;;;17.80;64.48;101130.31;10528053;28;20566;-74
2022/07/20 03:24:28;;;;;;;9.57;6.00;;;;;;;17.77;64.65;101133.75;10456110;28;20055;-76
2022/07/20 03:29:28;;;;;;;10.85;5.57;;;;;;;17.85;63.98;101153.34;10506413;28;20511;-74
2022/07/20 03:34:29;;;;;;;10.50;5.55;;;;;;;17.92;64.57;101159.69;10514403;28;20032;-75
2022/07/20 03:39:29;;;;;;;7.70;6.85;;;;;;;17.92;63.65;101149.09;10530835;28;20442;-74
2022/07/20 03:44:30;;;;;;;8.90;5.53;;;;;;;18.04;62.60;101177.63;10515312;28;20040;-74
2022/07/20 03:49:30;;;;;;;14.35;6.80;;;;;;;18.23;61.15;101172.72;10524770;28;20067;-74
2022/07/20 03:54:31;;;;;;;10.05;5.95;;;;;;;18.45;61.07;101188.19;10502579;28;20131;-74
2022/07/20 03:59:33;;;;;;;9.95;5.95;;;;;;;18.43;62.16;101197.88;10481529;28;20040;-75
2022/07/20 04:04:33;;;;;;;6.88;5.57;;;;;;;18.49;62.13;101211.25;10495512;28;20036;-74
2022/07/20 04:09:49;;;;;;;13.15;8.40;;;;;;;18.51;61.99;101240.44;10526000;28;20055;-74
2022/07/20 04:14:50;;;;;;;10.38;7.32;;;;;;;18.54;62.06;101236.94;10517758;28;20089;-74
2022/07/20 04:19:51;;;;;;;12.93;8.93;;;;;;;18.48;62.95;101254.50;10502867;28;20040;-74
2022/07/20 04:24:52;;;;;;;14.20;7.95;;;;;;;18.55;62.35;101265.25;10497114;28;20043;-75
2022/07/20 04:29:52;;;;;;;10.88;7.45;;;;;;;18.71;61.70;101264.69;10490612;28;20040;-73
2022/07/20 04:34:53;;;;;;;9.23;6.32;;;;;;;18.86;63.18;101280.03;10536530;28;20395;-73
2022/07/20 04:39:53;;;;;;;16.60;8.82;;;;;;;18.94;62.98;101269.56;10512773;28;20048;-75
2022/07/20 04:44:54;;;;;;;13.68;7.05;;;;;;;19.17;63.42;101263.84;10504849;28;20032;-75
2022/07/20 04:49:54;;;;;;;14.95;7.47;;;;;;;19.70;62.89;101276.28;10501255;28;20032;-76
2022/07/20 04:54:55;;;;;;;14.50;10.15;;;;;;;19.72;64.45;101281.59;10527981;28;20048;-76
2022/07/20 04:59:55;;;;;;;17.48;10.88;;;;;;;19.98;63.37;101289.13;10519755;28;20036;-74
2022/07/20 05:04:56;;;;;;;16.95;10.60;;;;;;;20.23;62.71;101293.06;10514426;28;20032;-74
2022/07/20 05:09:56;;;;;;;17.02;12.68;;;;;;;20.57;63.52;101292.63;10503614;28;20036;-74
2022/07/20 05:14:57;;;;;;;19.40;15.20;;;;;;;20.76;65.21;101288.44;10534213;28;20032;-74
2022/07/20 05:19:58;;;;;;;21.40;15.85;;;;;;;21.07;64.48;101279.06;10516402;28;20123;-74
2022/07/20 05:24:59;;;;;;;24.52;17.10;;;;;;;21.84;62.41;101278.91;10509056;28;20047;-74
2022/07/20 05:30:00;;;;;;;18.37;12.83;;;;;;;22.63;62.64;101278.50;10513346;28;20078;-75
2022/07/20 05:35:00;;;;;;;24.60;17.70;;;;;;;23.32;59.67;101287.63;10497641;28;20044;-75
2022/07/20 05:40:02;;;;;;;32.10;20.83;;;;;;;23.94;57.87;101298.31;10505544;28;20465;-75
2022/07/20 05:45:02;;;;;;;27.73;22.20;;;;;;;23.69;58.65;101314.34;10502451;28;20041;-74
2022/07/20 05:50:03;;;;;;;31.47;23.57;;;;;;;24.88;55.50;101323.09;10553080;28;20273;-75
2022/07/20 05:55:04;;;;;;;25.15;22.15;;;;;;;25.73;52.68;101329.72;10557043;28;20127;-75
2022/07/20 06:00:06;;;;;;;31.67;24.60;;;;;;;25.90;52.10;101337.59;10500578;28;20035;-76
2022/07/20 06:05:07;;;;;;;32.90;24.50;;;;;;;26.26;52.26;101338.19;10533213;28;20039;-74
2022/07/20 06:10:08;;;;;;;39.80;32.45;;;;;;;26.90;49.79;101343.75;10491697;28;20048;-74
2022/07/20 06:15:08;;;;;;;27.58;23.42;;;;;;;27.66;48.11;101348.06;10502369;28;20032;-75
2022/07/20 06:20:13;;;;;;;30.98;23.42;;;;;;;28.17;47.03;101351.72;10507874;28;20067;-75
2022/07/20 06:25:15;;;;;;;23.27;20.75;;;;;;;28.42;46.05;101381.75;10531166;28;20032;-75
2022/07/20 06:30:15;;;;;;;30.42;22.08;;;;;;;28.43;45.40;101399.66;10505855;28;20043;-75
2022/07/20 06:35:16;;;;;;;30.65;23.75;;;;;;;27.23;47.23;101421.22;10524323;28;20024;-76
2022/07/20 06:40:17;;;;;;;25.02;20.33;;;;;;;25.71;51.33;101433.38;10523660;28;20121;-75
2022/07/20 06:45:17;;;;;;;27.10;19.90;;;;;;;24.62;54.76;101455.16;10506051;28;20039;-77
2022/07/20 06:50:18;;;;;;;26.43;20.50;;;;;;;23.96;55.93;101480.09;10505223;28;20043;-74
2022/07/20 06:55:18;;;;;;;27.30;22.07;;;;;;;23.39;59.59;101505.72;10523868;28;20567;-73
2022/07/20 07:00:19;;;;;;;28.00;21.87;;;;;;;23.23;58.92;101506.50;10503861;28;20039;-74
2022/07/20 07:05:20;;;;;;;29.65;22.00;;;;;;;23.11;59.43;101507.34;10502349;28;20044;-74
2022/07/20 07:10:21;;;;;;;29.73;21.23;;;;;;;23.01;60.47;101522.41;10523746;28;20071;-74
2022/07/20 07:15:21;;;;;;;32.10;23.53;;;;;;;23.10;62.87;101533.13;10522157;28;20058;-73
2022/07/20 07:20:22;;;;;;;25.53;20.20;;;;;;;24.15;59.34;101538.09;10520701;28;20115;-74
2022/07/20 07:25:22;;;;;;;36.73;21.60;;;;;;;25.21;57.22;101530.03;10522633;28;20390;-75
2022/07/20 07:30:23;;;;;;;23.83;19.07;;;;;;;26.33;54.50;101537.56;10521474;28;20044;-77
2022/07/20 07:35:24;;;;;;;25.43;18.60;;;;;;;28.55;48.42;101533.16;10522467;28;20032;-74
2022/07/20 07:40:24;;;;;;;25.67;18.70;;;;;;;28.02;45.24;101535.75;10522108;28;20074;-75
2022/07/20 07:45:25;;;;;;;28.60;19.80;;;;;;;26.51;51.16;101521.31;10523730;28;20270;-76
2022/07/20 07:50:25;;;;;;;24.80;17.07;;;;;;;25.97;52.07;101540.44;10532840;28;20057;-77
2022/07/20 07:55:26;;;;;;;23.70;17.35;;;;;;;28.23;47.98;101539.06;10488840;28;20043;-75
2022/07/20 08:00:27;;;;;;;21.33;15.27;;;;;;;29.99;42.08;101542.06;10520742;28;20059;-75
2022/07/20 08:05:27;;;;;;;27.00;16.98;;;;;;;30.36;41.22;101548.41;10531510;28;20040;-76
2022/07/20 08:10:27;;;;;;;;;;;;;;;31.52;39.14;101539.94;10528449;28;20040;-75
2022/07/20 08:15:28;;;;;;;20.97;16.30;;;;;;;31.66;38.15;101531.41;10527982;28;19927;-76
2022/07/20 08:20:28;;;;;;;19.38;14.65;;;;;;;31.97;38.13;101560.25;10533248;28;20077;-76
2022/07/20 08:25:29;;;;;;;19.27;15.98;;;;;;;31.64;38.30;101561.19;10514184;28;20040;-76
2022/07/20 08:30:30;;;;;;;18.95;16.05;;;;;;;32.64;37.02;101558.09;10527798;28;20035;-76
2022/07/20 08:35:30;;;;;;;18.38;15.13;;;;;;;33.54;35.11;101519.66;10510566;28;20040;-77
2022/07/20 08:40:31;;;;;;;16.48;12.48;;;;;;;33.06;34.52;101491.63;10494813;28;20028;-77
2022/07/20 08:45:32;;;;;;;16.13;13.57;;;;;;;31.08;39.17;101502.44;10510344;28;20028;-76
2022/07/20 08:50:32;;;;;;;;;;;;;;;30.19;41.30;101560.50;10477189;28;20120;-76
2022/07/20 08:55:33;;;;;;;21.97;13.60;;;;;;;29.15;42.04;101592.28;10509613;28;19930;-76
2022/07/20 09:00:33;;;;;;;16.67;13.13;;;;;;;28.24;44.46;101567.75;10527963;28;20044;-78
2022/07/20 09:05:36;;;;;;;15.40;11.80;;;;;;;28.95;44.06;101574.69;10528375;28;20047;-77
2022/07/20 09:10:38;;;;;;;19.83;13.02;;;;;;;30.29;40.72;101558.47;10509521;28;20058;-76
2022/07/20 09:15:45;;;;;;;17.35;12.73;;;;;;;30.24;40.19;101518.09;10525820;28;20400;-76
2022/07/20 09:20:59;;;;;;;18.58;11.85;;;;;;;29.74;40.89;101494.06;10525960;28;20127;-76
2022/07/20 09:26:03;;;;;;;12.95;10.13;;;;;;;28.35;43.31;101486.88;10525534;28;20043;-76
2022/07/20 09:31:12;;;;;;;16.05;10.90;;;;;;;27.43;43.82;101471.13;10527220;28;20040;-75
2022/07/20 09:36:12;;;;;;;15.63;11.23;;;;;;;26.78;45.55;101538.09;10550510;28;20061;-73
2022/07/20 09:41:27;;;;;;;21.30;10.63;;;;;;;26.89;46.25;101596.19;10562009;28;20548;-76
2022/07/20 09:46:31;;;;;;;11.98;9.15;;;;;;;27.91;42.49;101610.34;10549963;28;20036;-75
2022/07/20 09:51:33;;;;;;;13.48;10.32;;;;;;;29.05;41.93;101615.84;10527656;28;20036;-74
2022/07/20 09:56:37;;;;;;;15.27;9.52;;;;;;;29.67;40.03;101611.06;10484773;28;20544;-73
2022/07/20 10:01:39;;;;;;;13.93;8.68;;;;;;;31.39;37.02;101609.72;10472109;28;20052;-73
2022/07/20 10:06:42;;;;;;;14.07;9.38;;;;;;;31.73;36.66;101616.88;10490399;28;20488;-73
2022/07/20 10:11:47;;;;;;;12.95;9.48;;;;;;;29.09;39.32;101633.72;10513133;28;20040;-74
2022/07/20 10:16:54;;;;;;;11.23;8.60;;;;;;;27.87;41.67;101613.97;10488822;28;20036;-74
2022/07/20 10:22:02;;;;;;;18.10;10.25;;;;;;;28.95;42.10;101585.47;10498596;28;20399;-73
2022/07/20 10:27:02;;;;;;;18.25;9.63;;;;;;;31.02;37.54;101581.84;10523748;28;21773;-74
2022/07/20 10:32:09;;;;;;;12.17;9.37;;;;;;;29.53;40.59;101587.97;10505847;28;20140;-73
2022/07/20 10:37:38;;;;;;;12.60;9.73;;;;;;;30.80;40.12;101594.16;10522716;28;20070;-73
2022/07/20 10:42:42;;;;;;;12.55;9.93;;;;;;;34.26;36.28;101572.03;10491283;28;20055;-74
2022/07/20 10:47:45;;;;;;;14.02;9.02;;;;;;;35.74;31.97;101569.22;10557393;28;20032;-75
2022/07/20 10:52:47;;;;;;;14.13;9.18;;;;;;;33.05;33.49;101576.59;10544554;28;20052;-74
2022/07/20 10:57:48;;;;;;;12.15;10.65;;;;;;;31.10;37.69;101581.66;10509263;28;20039;-75
2022/07/20 11:02:48;;;;;;;;;;;;;;;32.87;36.42;101583.53;10526320;28;20518;-74
2022/07/20 11:07:49;;;;;;;10.30;7.80;;;;;;;33.62;33.95;101582.63;10510902;28;20320;-74
2022/07/20 11:12:56;;;;;;;;;;;;;;;32.39;35.21;101586.00;10517195;28;20515;-75
2022/07/20 11:17:57;;;;;;;14.43;9.77;;;;;;;32.03;35.85;101572.69;10524188;28;20371;-74
2022/07/20 11:22:57;;;;;;;;;;;;;;;33.09;34.89;101564.69;10537499;28;20040;-75
2022/07/20 11:28:01;;;;;;;11.20;7.20;;;;;;;32.78;34.86;101554.91;10551942;28;19920;-74
2022/07/20 11:33:03;;;;;;;9.55;6.18;;;;;;;31.98;37.50;101575.56;10513256;28;20051;-74
2022/07/20 11:38:03;;;;;;;;;;;;;;;32.50;33.97;101572.13;10492314;28;20051;-74
2022/07/20 11:43:15;;;;;;;13.50;6.83;;;;;;;32.56;34.90;101585.47;10529823;28;19920;-73
2022/07/20 11:48:20;;;;;;;9.88;7.15;;;;;;;32.54;35.54;101581.91;10496937;28;20388;-75
2022/07/20 11:53:29;;;;;;;10.05;6.90;;;;;;;35.27;30.96;101573.19;10545378;28;20044;-75
2022/07/20 11:58:32;;;;;;;8.75;6.10;;;;;;;35.48;30.37;101563.19;10495503;28;20418;-75
2022/07/20 12:03:35;;;;;;;10.05;6.57;;;;;;;35.33;30.36;101563.88;10527780;28;20036;-75
2022/07/20 12:08:35;;;;;;;9.07;6.30;;;;;;;36.79;29.53;101556.84;10528895;28;20037;-74
2022/07/20 12:13:47;;;;;;;10.10;7.45;;;;;;;36.53;28.90;101545.44;10512028;28;20036;-76
2022/07/20 12:18:52;;;;;;;8.40;6.60;;;;;;;34.83;31.11;101542.44;10530069;28;20123;-74
2022/07/20 12:23:53;;;;;;;27.17;23.08;;;;;;;35.08;30.46;101544.09;10489346;28;20448;-74
2022/07/20 12:29:21;;;;;;;8.68;7.43;;;;;;;33.54;31.88;101541.34;10493886;28;20809;-74
2022/07/20 12:34:21;;;;;;;9.68;5.95;;;;;;;33.62;33.05;101543.78;10511535;28;20082;-74
2022/07/20 12:39:48;;;;;;;9.30;6.22;;;;;;;31.86;35.36;101540.75;10521379;28;20136;-74
2022/07/20 12:45:03;;;;;;;9.23;6.18;;;;;;;31.13;39.29;101542.81;10513106;28;20085;-74
2022/07/20 12:50:04;;;;;;;7.63;5.68;;;;;;;31.27;37.16;101539.78;10540902;28;20039;-74
2022/07/20 12:55:04;;;;;;;8.13;6.32;;;;;;;33.88;33.67;101514.72;10525554;28;20044;-75
2022/07/20 13:00:10;;;;;;;7.47;5.40;;;;;;;34.95;29.78;101523.81;10507925;28;20060;-75
2022/07/20 13:05:11;;;;;;;7.80;6.97;;;;;;;34.23;31.49;101521.44;10528828;28;20048;-75
2022/07/20 13:10:12;;;;;;;8.70;6.05;;;;;;;34.50;30.93;101521.22;10529199;28;20127;-75
2022/07/20 13:15:12;;;;;;;8.93;6.47;;;;;;;34.68;31.21;101518.66;10510829;28;20043;-75
2022/07/20 13:20:13;;;;;;;9.68;6.47;;;;;;;35.55;28.88;101515.69;10528413;28;20496;-75
2022/07/20 13:25:13;;;;;;;8.68;6.68;;;;;;;36.16;29.11;101515.47;10509529;28;20036;-75
2022/07/20 13:30:14;;;;;;;8.80;5.97;;;;;;;36.09;28.00;101528.53;10510262;28;20460;-75
2022/07/20 13:35:15;;;;;;;6.60;6.00;;;;;;;35.56;29.94;101522.00;10527585;28;20032;-75
2022/07/20 13:40:16;;;;;;;8.52;6.72;;;;;;;34.88;30.64;101522.34;10527376;28;20044;-75
2022/07/20 13:45:17;;;;;;;10.35;7.13;;;;;;;34.95;30.51;101512.94;10526973;28;20044;-75
2022/07/20 13:50:17;;;;;;;9.68;7.00;;;;;;;35.11;31.80;101518.63;10527283;28;20111;-74
2022/07/20 13:55:18;;;;;;;8.52;6.32;;;;;;;35.06;31.73;101516.09;10508519;28;20036;-74
2022/07/20 14:00:18;;;;;;;11.20;7.20;;;;;;;35.00;32.03;101521.81;10525838;28;20119;-74
2022/07/20 14:05:19;;;;;;;11.05;6.47;;;;;;;35.56;29.56;101516.53;10509475;28;20127;-74
2022/07/20 14:10:19;;;;;;;6.40;4.78;;;;;;;34.80;31.19;101519.97;10491841;28;20046;-75
2022/07/20 14:15:20;;;;;;;6.43;5.15;;;;;;;33.33;32.68;101521.34;10491353;28;20035;-74
2022/07/20 14:20:20;;;;;;;10.45;6.05;;;;;;;32.05;35.15;101527.50;10490407;28;20173;-74
2022/07/20 14:25:21;;;;;;;;;;;;;;;31.39;36.37;101528.59;10526920;28;20027;-74
2022/07/20 14:30:22;;;;;;;10.10;5.63;;;;;;;31.77;36.98;101536.50;10506142;28;19920;-75
2022/07/20 14:35:22;;;;;;;6.97;5.60;;;;;;;32.39;35.51;101537.25;10506368;28;20028;-74
2022/07/20 14:40:22;;;;;;;;;;;;;;;32.64;34.62;101540.03;10508223;28;20059;-74
2022/07/20 14:45:23;;;;;;;8.47;6.13;;;;;;;32.67;34.92;101539.03;10524598;28;20006;-74
2022/07/20 14:50:23;;;;;;;;;;;;;;;31.85;35.69;101547.97;10507985;28;20534;-75
2022/07/20 14:55:24;;;;;;;8.13;5.60;;;;;;;31.59;35.83;101548.75;10525014;28;20457;-74
2022/07/20 15:00:25;;;;;;;7.13;6.30;;;;;;;31.59;36.67;101544.22;10525671;28;20445;-74
2022/07/20 15:05:25;;;;;;;7.50;5.78;;;;;;;31.59;36.45;101538.81;10524426;28;20084;-74
2022/07/20 15:10:26;;;;;;;8.93;6.10;;;;;;;31.95;37.20;101531.44;10526425;28;20428;-75
2022/07/20 15:15:26;;;;;;;8.35;6.35;;;;;;;31.51;36.86;101521.94;10515905;28;20028;-74
2022/07/20 15:20:27;;;;;;;9.88;6.95;;;;;;;30.63;39.36;101506.34;10514631;28;20076;-74
2022/07/20 15:25:27;;;;;;;11.77;6.63;;;;;;;30.09;40.09;101494.19;10482008;28;20040;-74
2022/07/20 15:30:28;;;;;;;12.83;7.67;;;;;;;30.12;41.03;101499.50;10514695;28;20274;-73
2022/07/20 15:35:28;;;;;;;8.43;6.63;;;;;;;30.08;40.21;101495.13;10533054;28;20123;-74
2022/07/20 15:40:29;;;;;;;11.10;5.87;;;;;;;30.02;39.48;101502.44;10513865;28;20035;-74
2022/07/20 15:45:29;;;;;;;8.80;7.07;;;;;;;29.61;39.83;101496.16;10497034;28;20293;-76
2022/07/20 15:50:30;;;;;;;10.63;5.83;;;;;;;29.80;39.45;101493.03;10514991;28;20032;-74
2022/07/20 15:55:31;;;;;;;9.27;7.40;;;;;;;29.59;40.66;101498.00;10513412;28;20056;-74
2022/07/20 16:00:31;;;;;;;9.63;7.00;;;;;;;28.71;41.92;101489.81;10513662;28;20036;-74
2022/07/20 16:05:32;;;;;;;10.53;8.17;;;;;;;28.61;43.57;101497.16;10531114;28;20078;-74
2022/07/20 16:10:32;;;;;;;10.83;7.50;;;;;;;28.77;43.55;101486.13;10531913;28;20078;-75
2022/07/20 16:15:33;;;;;;;9.50;7.63;;;;;;;28.82;43.08;101482.47;10497098;28;20076;-73
2022/07/20 16:20:33;;;;;;;10.00;7.80;;;;;;;28.62;42.71;101474.69;10512892;28;20031;-73
2022/07/20 16:25:34;;;;;;;9.27;7.27;;;;;;;28.36;44.23;101472.50;10495830;28;20028;-73
2022/07/20 16:30:34;;;;;;;11.07;7.27;;;;;;;28.27;45.43;101489.66;10529678;28;20036;-74
2022/07/20 16:35:35;;;;;;;7.93;7.13;;;;;;;28.02;44.71;101505.28;10511776;28;20036;-74
2022/07/20 16:40:35;;;;;;;10.97;8.40;;;;;;;27.80;45.54;101478.72;10530197;28;20086;-73
2022/07/20 16:45:36;;;;;;;9.67;7.57;;;;;;;27.66;45.44;101476.22;10530044;28;20501;-74
2022/07/20 16:50:36;;;;;;;9.07;7.37;;;;;;;27.76;46.06;101499.38;10495125;28;20037;-74
2022/07/20 16:55:37;;;;;;;9.97;8.10;;;;;;;27.51;47.15;101498.84;10529294;28;20693;-74
2022/07/20 17:00:37;;;;;;;11.27;8.17;;;;;;;27.29;47.46;101499.06;10512259;28;20115;-74
2022/07/20 17:05:39;;;;;;;13.30;10.13;;;;;;;26.93;48.21;101501.28;10493969;28;20074;-74
2022/07/20 17:10:39;;;;;;;11.80;9.13;;;;;;;26.53;49.36;101494.47;10509989;28;20437;-73
2022/07/20 17:15:40;;;;;;;14.03;10.30;;;;;;;26.59;49.79;101498.91;10494449;28;20036;-75
2022/07/20 17:20:41;;;;;;;13.00;9.20;;;;;;;26.61;49.59;101519.44;10527994;28;20123;-74
2022/07/20 17:25:41;;;;;;;11.57;8.53;;;;;;;26.26;51.12;101535.84;10509816;28;20040;-73
2022/07/20 17:30:42;;;;;;;9.40;8.37;;;;;;;25.87;50.81;101533.34;10509419;28;20093;-75
2022/07/20 17:35:42;;;;;;;10.90;8.17;;;;;;;25.68;51.04;101530.75;10509402;28;20446;-73
2022/07/20 17:40:43;;;;;;;12.73;9.63;;;;;;;25.60;52.05;101529.91;10510115;28;20043;-73
2022/07/20 17:45:43;;;;;;;10.97;7.90;;;;;;;25.49;52.75;101506.72;10527155;28;20043;-74
2022/07/20 17:50:44;;;;;;;14.37;9.37;;;;;;;25.49;52.97;101479.06;10509636;28;20051;-73
2022/07/20 17:55:45;;;;;;;11.40;8.07;;;;;;;25.48;53.73;101480.84;10508056;28;20093;-73
2022/07/20 18:00:53;;;;;;;11.38;8.95;;;;;;;25.22;53.79;101499.69;10436775;28;20126;-75
2022/07/20 18:05:54;;;;;;;12.50;9.83;;;;;;;25.07;54.60;101487.22;10395855;28;20052;-74
2022/07/20 18:10:54;;;;;;;14.17;10.03;;;;;;;24.91;54.75;101514.00;10413760;28;20036;-74
2022/07/20 18:15:55;;;;;;;13.83;9.37;;;;;;;24.87;54.97;101514.91;10435747;28;20056;-74
2022/07/20 18:20:56;;;;;;;11.07;9.27;;;;;;;24.81;55.22;101514.94;10435555;28;20045;-74
2022/07/20 18:25:56;;;;;;;18.57;10.07;;;;;;;24.84;55.38;101552.41;10419125;28;20123;-75
2022/07/20 18:30:57;;;;;;;11.83;9.57;;;;;;;24.70;55.95;101563.09;10401907;28;20549;-75
2022/07/20 18:35:57;;;;;;;12.73;9.97;;;;;;;24.58;56.21;101542.56;10417592;28;20037;-74
2022/07/20 18:40:58;;;;;;;14.40;10.30;;;;;;;24.42;56.57;101509.59;10401453;28;20124;-75
2022/07/20 18:45:58;;;;;;;10.77;9.33;;;;;;;24.23;57.69;101514.00;10418211;28;20066;-75
2022/07/20 18:50:59;;;;;;;15.60;10.20;;;;;;;24.05;58.40;101512.22;10384207;28;20408;-75
2022/07/20 18:56:00;;;;;;;13.03;10.00;;;;;;;23.88;58.59;101505.03;10366040;28;20049;-75
2022/07/20 19:01:00;;;;;;;13.17;9.80;;;;;;;23.74;59.04;101504.97;10396856;28;20041;-74
2022/07/20 19:06:03;;;;;;;29.97;24.53;;;;;;;23.53;60.19;101511.16;10406285;28;20045;-73
2022/07/20 19:11:05;;;;;;;15.75;12.07;;;;;;;23.43;60.39;101512.00;10350068;28;20048;-75
2022/07/20 19:16:06;;;;;;;13.80;9.63;;;;;;;23.25;62.56;101515.44;10357236;28;20068;-74
2022/07/20 19:21:06;;;;;;;20.57;13.00;;;;;;;23.19;61.78;101516.28;10388226;28;20041;-75
2022/07/20 19:26:07;;;;;;;12.97;10.27;;;;;;;23.08;62.60;101516.22;10347457;28;20061;-76
2022/07/20 19:31:07;;;;;;;13.27;10.90;;;;;;;22.98;62.93;101511.69;10354249;28;20049;-74
2022/07/20 19:36:08;;;;;;;14.50;10.10;;;;;;;22.82;62.95;101487.59;10406411;28;20065;-75
2022/07/20 19:41:09;;;;;;;14.67;12.57;;;;;;;22.67;63.89;101490.16;10379499;28;20069;-74
2022/07/20 19:46:10;;;;;;;12.10;10.47;;;;;;;22.64;64.59;101487.44;10365697;28;20070;-75
2022/07/20 19:51:11;;;;;;;17.43;11.90;;;;;;;22.64;64.29;101509.69;10353914;28;20057;-74
2022/07/20 19:56:13;;;;;;;14.50;9.87;;;;;;;22.59;63.35;101519.44;10386967;28;20120;-75
2022/07/20 20:01:13;;;;;;;16.52;11.27;;;;;;;22.64;62.33;101538.13;10352893;28;20062;-74
2022/07/20 20:06:15;;;;;;;15.97;11.50;;;;;;;22.65;61.83;101561.25;10346498;28;20166;-75
2022/07/20 20:11:15;;;;;;;13.38;10.55;;;;;;;22.57;61.36;101604.78;10388356;28;20179;-74
2022/07/20 20:16:16;;;;;;;20.10;13.43;;;;;;;22.54;61.70;101615.41;10386058;28;20558;-74
2022/07/20 20:21:16;;;;;;;28.10;18.33;;;;;;;21.41;70.49;101617.53;10338051;28;20045;-77
2022/07/20 20:26:17;;;;;;;21.70;16.70;;;;;;;19.92;79.90;101624.63;10368033;28;20179;-74
2022/07/20 20:31:17;;;;;;;21.27;17.15;;;;;;;19.28;89.01;101638.22;10361034;28;20041;-76
2022/07/20 20:36:18;;;;;;;23.58;19.05;;;;;;;18.91;92.63;101646.09;10354728;28;20124;-75
2022/07/20 20:41:18;;;;;;;25.75;19.58;;;;;;;18.64;95.42;101639.22;10403190;28;20594;-75
2022/07/20 20:46:19;;;;;;;27.23;21.00;;;;;;;18.59;98.36;101628.50;10398679;28;20748;-75
2022/07/20 20:51:21;;;;;;;22.58;19.58;;;;;;;18.46;99.62;101618.44;10327968;28;20034;-75
2022/07/20 20:56:22;;;;;;;24.08;17.30;;;;;;;18.25;99.08;101621.38;10369745;28;20042;-74
2022/07/20 21:01:23;;;;;;;25.88;20.98;;;;;;;18.20;100.00;101619.50;10328515;28;20050;-75
2022/07/20 21:06:24;;;;;;;31.38;23.30;;;;;;;18.24;100.00;101627.53;10362114;28;20048;-75
2022/07/20 21:11:24;;;;;;;28.88;23.55;;;;;;;18.24;100.00;101640.78;10344052;28;20054;-75
2022/07/20 21:16:25;;;;;;;32.53;26.13;;;;;;;18.24;100.00;101622.22;10360549;28;20038;-74
2022/07/20 21:21:25;;;;;;;30.10;25.95;;;;;;;18.20;100.00;101638.03;10381775;28;20045;-74
2022/07/20 21:26:26;;;;;;;43.65;32.97;;;;;;;18.12;100.00;101655.47;10383954;28;20072;-76
2022/07/20 21:31:26;;;;;;;27.00;22.77;;;;;;;18.14;100.00;101676.72;10371212;28;20104;-76
2022/07/20 21:36:27;;;;;;;22.77;20.08;;;;;;;18.04;100.00;101678.19;10321892;28;20038;-75
2022/07/20 21:41:28;;;;;;;24.00;18.70;;;;;;;17.82;100.00;101709.25;10352035;28;20038;-74
2022/07/20 21:46:28;;;;;;;18.80;14.80;;;;;;;17.72;100.00;101696.59;10401161;28;20113;-76
2022/07/20 21:51:29;;;;;;;20.65;17.05;;;;;;;17.66;100.00;101712.28;10373439;28;20041;-75
2022/07/20 21:56:29;;;;;;;16.73;13.93;;;;;;;17.53;100.00;101701.31;10326465;28;20079;-75
2022/07/20 22:01:31;;;;;;;24.13;14.27;;;;;;;17.35;100.00;101698.06;10349469;28;20041;-74
2022/07/20 22:06:32;;;;;;;16.92;13.65;;;;;;;17.22;100.00;101689.72;10348353;28;20045;-75
2022/07/20 22:11:32;;;;;;;19.98;15.73;;;;;;;17.14;100.00;101691.19;10350199;28;20125;-74
2022/07/20 22:16:33;;;;;;;20.48;15.00;;;;;;;17.10;100.00;101684.00;10366876;28;20159;-75
2022/07/20 22:21:33;;;;;;;20.85;15.85;;;;;;;17.03;100.00;101694.38;10370413;28;20100;-74
2022/07/20 22:26:37;;;;;;;20.65;15.32;;;;;;;17.03;100.00;101691.72;10341741;28;20088;-75
2022/07/20 22:31:38;;;;;;;20.58;15.57;;;;;;;17.04;100.00;101687.34;10351820;28;20106;-75
2022/07/20 22:36:38;;;;;;;18.77;14.82;;;;;;;17.03;100.00;101670.56;10400221;28;20098;-74
2022/07/20 22:41:39;;;;;;;18.75;15.88;;;;;;;17.04;100.00;101679.44;10363625;28;20533;-75
2022/07/20 22:46:39;;;;;;;16.48;14.02;;;;;;;17.00;100.00;101670.47;10405920;28;20883;-74
2022/07/20 22:51:40;;;;;;;20.90;15.60;;;;;;;16.95;100.00;101666.75;10398319;28;20033;-74
2022/07/20 22:56:40;;;;;;;19.52;14.18;;;;;;;16.96;100.00;101659.72;10366048;28;20397;-74